createdAt,value
2023-01-02T00:01:09.858Z,13.96
2023-01-02T00:03:38.666Z,14.04
2023-01-02T00:06:07.328Z,14.19
2023-01-02T00:08:36.274Z,14.13
2023-01-02T00:11:03.976Z,14.02
2023-01-02T00:13:31.665Z,14.16
2023-01-02T00:15:59.335Z,14.25
2023-01-02T00:18:27.173Z,14.22
2023-01-02T00:20:54.832Z,14.18
2023-01-02T00:23:22.717Z,14.15
2023-01-02T00:25:51.697Z,14.22
2023-01-02T00:28:19.241Z,14.25
2023-01-02T00:30:46.749Z,14.14
2023-01-02T00:33:15.290Z,14.11
2023-01-02T00:35:42.927Z,14.03
2023-01-02T00:38:10.878Z,14.08
2023-01-02T00:40:38.544Z,14.17
2023-01-02T00:43:07.493Z,14.23
2023-01-02T00:45:35.154Z,14.22
2023-01-02T00:48:02.842Z,14.29
2023-01-02T00:50:30.496Z,14.27
2023-01-02T00:52:58.119Z,14.15
2023-01-02T00:55:25.800Z,14.20
2023-01-02T00:57:53.677Z,14.17
2023-01-02T01:00:24.308Z,14.26
2023-01-02T01:02:55.660Z,14.25
2023-01-02T01:05:23.544Z,14.29
2023-01-02T01:07:51.309Z,14.32
2023-01-02T01:10:19.140Z,14.17
2023-01-02T01:12:46.829Z,14.10
2023-01-02T01:15:14.476Z,13.69
2023-01-02T01:17:43.715Z,13.43
2023-01-02T01:20:12.032Z,13.50
2023-01-02T01:22:39.689Z,13.21
2023-01-02T01:25:08.066Z,13.28
2023-01-02T01:27:35.740Z,13.47
2023-01-02T01:30:04.009Z,13.50
2023-01-02T01:32:31.732Z,13.36
2023-01-02T01:35:00.779Z,13.39
2023-01-02T01:37:28.498Z,13.46
2023-01-02T01:39:57.000Z,13.60
2023-01-02T01:42:24.965Z,13.68
2023-01-02T01:44:54.969Z,13.66
2023-01-02T01:47:36.961Z,13.59
2023-01-02T01:50:10.405Z,13.55
2023-01-02T01:52:44.841Z,13.65
2023-01-02T01:55:18.878Z,13.74
2023-01-02T01:57:51.314Z,13.80
2023-01-02T02:00:18.994Z,13.77
2023-01-02T02:02:51.790Z,13.78
2023-01-02T02:05:26.261Z,13.79
2023-01-02T02:08:04.364Z,13.85
2023-01-02T02:10:32.381Z,13.93
2023-01-02T02:13:00.004Z,13.86
2023-01-02T02:15:38.244Z,13.96
2023-01-02T02:18:21.181Z,13.91
2023-01-02T02:21:00.836Z,13.94
2023-01-02T02:24:12.131Z,13.88
2023-01-02T02:27:26.680Z,13.94
2023-01-02T02:30:13.673Z,13.95
2023-01-02T02:33:07.263Z,14.03
2023-01-02T02:35:49.620Z,14.13
2023-01-02T02:38:28.015Z,14.09
2023-01-02T02:41:09.718Z,14.18
2023-01-02T02:43:54.869Z,14.10
2023-01-02T02:46:37.461Z,13.97
2023-01-02T02:49:14.119Z,13.96
2023-01-02T02:51:48.609Z,13.96
2023-01-02T02:54:24.090Z,13.87
2023-01-02T02:56:54.994Z,13.90
2023-01-02T02:59:23.772Z,13.86
2023-01-02T03:01:52.939Z,13.81
2023-01-02T03:04:23.191Z,13.83
2023-01-02T03:07:08.805Z,13.87
2023-01-02T03:09:49.393Z,13.79
2023-01-02T03:12:32.260Z,13.76
2023-01-02T03:15:16.027Z,13.78
2023-01-02T03:18:03.956Z,13.66
2023-01-02T03:20:38.855Z,13.61
2023-01-02T03:23:14.191Z,13.45
2023-01-02T03:25:44.520Z,13.54
2023-01-02T03:28:18.125Z,13.54
2023-01-02T03:30:51.550Z,13.52
2023-01-02T03:33:26.306Z,13.57
2023-01-02T03:35:59.512Z,13.42
2023-01-02T03:38:34.154Z,13.46
2023-01-02T03:41:09.209Z,13.52
2023-01-02T03:43:42.432Z,13.68
2023-01-02T03:46:19.029Z,13.57
2023-01-02T03:48:54.153Z,13.26
2023-01-02T03:51:22.116Z,13.02
2023-01-02T03:53:50.132Z,12.89
2023-01-02T03:56:27.081Z,12.81
2023-01-02T03:59:03.181Z,12.83
2023-01-02T04:01:41.658Z,12.90
2023-01-02T04:04:17.490Z,12.92
2023-01-02T04:06:52.638Z,12.92
2023-01-02T04:09:25.890Z,13.03
2023-01-02T04:11:59.034Z,12.95
2023-01-02T04:14:34.291Z,12.98
2023-01-02T04:17:08.342Z,12.99
2023-01-02T04:19:44.028Z,13.04
2023-01-02T04:22:20.739Z,12.98
2023-01-02T04:24:55.482Z,13.09
2023-01-02T04:27:28.455Z,13.08
2023-01-02T04:29:56.938Z,13.10
2023-01-02T04:32:32.673Z,13.08
2023-01-02T04:35:07.992Z,12.90
2023-01-02T04:37:38.140Z,13.03
2023-01-02T04:40:14.633Z,12.78
2023-01-02T04:42:42.284Z,12.66
2023-01-02T04:45:10.754Z,12.80
2023-01-02T04:47:39.845Z,12.74
2023-01-02T04:50:11.453Z,12.68
2023-01-02T04:52:39.130Z,12.64
2023-01-02T04:55:08.822Z,12.53
2023-01-02T04:57:37.523Z,12.58
2023-01-02T05:00:07.990Z,12.59
2023-01-02T05:02:36.248Z,12.64
2023-01-02T05:05:05.464Z,12.67
2023-01-02T05:07:34.489Z,12.63
2023-01-02T05:10:02.340Z,12.49
2023-01-02T05:12:33.579Z,12.51
2023-01-02T05:15:01.771Z,12.79
2023-01-02T05:17:33.510Z,12.80
2023-01-02T05:20:01.182Z,12.68
2023-01-02T05:22:28.797Z,12.81
2023-01-02T05:24:57.692Z,13.08
2023-01-02T05:27:25.385Z,13.29
2023-01-02T05:29:53.072Z,13.40
2023-01-02T05:32:20.740Z,13.50
2023-01-02T05:34:48.361Z,13.44
2023-01-02T05:37:15.993Z,13.61
2023-01-02T05:39:43.620Z,13.51
2023-01-02T05:42:12.578Z,13.63
2023-01-02T05:44:40.322Z,13.65
2023-01-02T05:47:10.850Z,13.42
2023-01-02T05:49:41.031Z,13.40
2023-01-02T05:52:08.722Z,13.43
2023-01-02T05:54:36.318Z,13.50
2023-01-02T05:57:03.984Z,13.30
2023-01-02T05:59:36.104Z,13.26
2023-01-02T06:02:04.328Z,13.12
2023-01-02T06:04:32.030Z,13.09
2023-01-02T06:06:59.758Z,13.11
2023-01-02T06:09:27.398Z,13.02
2023-01-02T06:11:55.031Z,12.89
2023-01-02T06:14:22.701Z,12.95
2023-01-02T06:16:51.619Z,12.89
2023-01-02T06:19:19.247Z,12.89
2023-01-02T06:21:46.784Z,12.90
2023-01-02T06:24:14.293Z,12.72
2023-01-02T06:26:41.905Z,12.83
2023-01-02T06:29:09.844Z,12.79
2023-01-02T06:31:39.863Z,12.75
2023-01-02T06:34:10.703Z,12.93
2023-01-02T06:36:38.357Z,12.96
2023-01-02T06:39:06.020Z,13.05
2023-01-02T06:41:33.603Z,13.06
2023-01-02T06:44:01.131Z,13.21
2023-01-02T06:46:28.789Z,13.23
2023-01-02T06:48:56.429Z,13.34
2023-01-02T06:51:25.302Z,13.31
2023-01-02T06:53:53.039Z,13.31
2023-01-02T06:56:22.235Z,13.46
2023-01-02T06:58:50.445Z,13.56
2023-01-02T07:01:20.999Z,13.52
2023-01-02T07:03:49.185Z,13.50
2023-01-02T07:06:19.056Z,13.75
2023-01-02T07:08:48.466Z,13.70
2023-01-02T07:11:18.568Z,13.85
2023-01-02T07:13:48.383Z,13.81
2023-01-02T07:16:18.648Z,13.92
2023-01-02T07:18:57.277Z,13.94
2023-01-02T07:21:24.993Z,13.93
2023-01-02T07:23:54.066Z,13.90
2023-01-02T07:26:22.791Z,13.92
2023-01-02T07:28:51.918Z,13.95
2023-01-02T07:31:21.082Z,13.94
2023-01-02T07:33:49.529Z,13.85
2023-01-02T07:36:19.572Z,13.96
2023-01-02T07:38:50.725Z,13.96
2023-01-02T07:41:22.103Z,13.89
2023-01-02T07:43:50.390Z,13.97
2023-01-02T07:46:20.152Z,13.97
2023-01-02T07:48:47.856Z,14.00
2023-01-02T07:51:18.565Z,14.05
2023-01-02T07:53:50.465Z,14.00
2023-01-02T07:56:19.500Z,14.02
2023-01-02T07:58:47.274Z,14.07
2023-01-02T08:01:15.051Z,13.96
2023-01-02T08:03:45.809Z,14.07
2023-01-02T08:06:16.107Z,14.06
2023-01-02T08:08:44.043Z,14.04
2023-01-02T08:11:13.611Z,14.09
2023-01-02T08:13:42.763Z,13.88
2023-01-02T08:16:13.227Z,14.02
2023-01-02T08:18:40.811Z,14.01
2023-01-02T08:21:09.959Z,14.00
2023-01-02T08:23:39.757Z,14.08
2023-01-02T08:26:10.360Z,14.05
2023-01-02T08:32:07.795Z,13.96
2023-01-02T08:34:35.952Z,14.00
2023-01-02T08:37:03.841Z,13.81
2023-01-02T08:39:35.570Z,13.87
2023-01-02T08:42:04.014Z,13.91
2023-01-02T08:44:33.813Z,14.01
2023-01-02T08:47:01.520Z,14.09
2023-01-02T08:49:29.109Z,13.96
2023-01-02T08:51:58.520Z,13.90
2023-01-02T08:54:26.288Z,14.00
2023-01-02T08:56:53.848Z,14.22
2023-01-02T08:59:24.285Z,14.21
2023-01-02T09:01:53.252Z,14.29
2023-01-02T09:04:21.355Z,14.48
2023-01-02T09:06:48.887Z,14.72
2023-01-02T09:09:16.987Z,14.80
2023-01-02T09:11:47.693Z,14.67
2023-01-02T09:14:15.197Z,14.63
2023-01-02T09:16:42.987Z,14.68
2023-01-02T09:19:12.010Z,14.86
2023-01-02T09:21:39.668Z,15.03
2023-01-02T09:24:08.277Z,14.83
2023-01-02T09:26:37.117Z,15.01
2023-01-02T09:29:05.260Z,15.01
2023-01-02T09:31:32.950Z,15.12
2023-01-02T09:34:00.765Z,15.22
2023-01-02T09:36:29.904Z,15.43
2023-01-02T09:38:59.212Z,15.61
2023-01-02T09:41:34.631Z,15.48
2023-01-02T09:44:10.511Z,15.69
2023-01-02T09:46:49.489Z,15.82
2023-01-02T09:49:21.513Z,15.80
2023-01-02T09:51:51.336Z,15.76
2023-01-02T09:54:24.849Z,15.86
2023-01-02T09:57:08.908Z,15.98
2023-01-02T09:59:46.981Z,16.20
2023-01-02T10:02:33.597Z,16.17
2023-01-02T10:05:22.748Z,16.11
2023-01-02T10:08:01.506Z,16.29
2023-01-02T10:10:38.131Z,16.38
2023-01-02T10:13:17.719Z,16.45
2023-01-02T10:15:49.424Z,16.09
2023-01-02T10:18:26.560Z,16.10
2023-01-02T10:20:59.926Z,16.22
2023-01-02T10:23:37.935Z,16.32
2023-01-02T10:26:12.301Z,16.51
2023-01-02T10:28:49.531Z,16.43
2023-01-02T10:31:24.971Z,16.51
2023-01-02T10:33:57.755Z,16.43
2023-01-02T10:36:28.376Z,16.57
2023-01-02T10:39:01.941Z,16.19
2023-01-02T10:41:31.890Z,16.37
2023-01-02T10:44:03.686Z,16.22
2023-01-02T10:46:35.560Z,16.35
2023-01-02T10:49:04.838Z,16.33
2023-01-02T10:51:33.459Z,16.39
2023-01-02T10:54:05.228Z,16.58
2023-01-02T10:56:36.470Z,16.72
2023-01-02T10:59:19.782Z,17.42
2023-01-02T11:01:52.850Z,17.43
2023-01-02T11:04:23.642Z,17.70
2023-01-02T11:06:57.671Z,18.01
2023-01-02T11:09:28.804Z,17.79
2023-01-02T11:11:58.969Z,17.76
2023-01-02T11:14:33.009Z,17.58
2023-01-02T11:17:06.860Z,17.40
2023-01-02T11:19:41.598Z,17.23
2023-01-02T11:22:11.489Z,17.03
2023-01-02T11:24:59.529Z,16.98
2023-01-02T11:27:34.304Z,16.86
2023-01-02T11:33:02.214Z,16.61
2023-01-02T11:35:39.218Z,16.80
2023-01-02T11:38:14.283Z,17.64
2023-01-02T11:41:02.951Z,18.78
2023-01-02T11:43:41.699Z,17.85
2023-01-02T11:46:22.504Z,17.71
2023-01-02T11:48:55.677Z,17.65
2023-01-02T11:51:23.933Z,17.42
2023-01-02T11:53:54.478Z,17.22
2023-01-02T11:56:28.705Z,17.02
2023-01-02T11:59:01.314Z,17.18
2023-01-02T12:01:36.335Z,18.51
2023-01-02T12:04:04.842Z,18.16
2023-01-02T12:06:50.553Z,17.72
2023-01-02T12:09:29.768Z,17.58
2023-01-02T12:12:16.300Z,18.71
2023-01-02T12:15:05.571Z,19.74
2023-01-02T12:17:46.518Z,19.93
2023-01-02T12:20:41.784Z,19.26
2023-01-02T12:23:43.345Z,18.13
2023-01-02T12:26:15.288Z,17.73
2023-01-02T12:29:46.237Z,17.44
2023-01-02T12:33:04.239Z,17.22
2023-01-02T12:36:06.502Z,17.26
2023-01-02T12:38:57.482Z,17.22
2023-01-02T12:41:34.368Z,17.31
2023-01-02T12:44:47.657Z,16.87
2023-01-02T12:47:40.156Z,16.95
2023-01-02T12:50:31.143Z,17.17
2023-01-02T12:53:19.436Z,16.89
2023-01-02T12:55:59.631Z,16.84
2023-01-02T12:58:41.842Z,16.68
2023-01-02T13:01:20.842Z,16.61
2023-01-02T13:04:00.615Z,16.57
2023-01-02T13:06:43.554Z,16.67
2023-01-02T13:09:23.564Z,16.60
2023-01-02T13:11:59.982Z,16.47
2023-01-02T13:14:36.124Z,16.41
2023-01-02T13:17:43.549Z,16.57
2023-01-02T13:20:23.016Z,16.48
2023-01-02T13:23:08.534Z,16.29
2023-01-02T13:25:45.815Z,16.20
2023-01-02T13:28:15.007Z,16.23
2023-01-02T13:31:19.131Z,16.13
2023-01-02T13:33:49.630Z,15.97
2023-01-02T13:36:25.263Z,15.86
2023-01-02T13:39:00.866Z,16.05
2023-01-02T13:41:31.935Z,15.93
2023-01-02T13:44:02.766Z,15.71
2023-01-02T13:47:02.740Z,15.54
2023-01-02T13:49:28.033Z,15.33
2023-01-02T13:51:58.924Z,15.28
2023-01-02T13:54:36.291Z,15.35
2023-01-02T13:57:30.528Z,15.26
2023-01-02T13:59:59.448Z,15.21
2023-01-02T14:02:27.740Z,15.44
2023-01-02T14:04:55.927Z,15.56
2023-01-02T14:07:47.074Z,15.46
2023-01-02T14:10:46.291Z,15.27
2023-01-02T14:13:33.659Z,15.20
2023-01-02T14:16:40.313Z,15.04
2023-01-02T14:19:23.505Z,15.11
2023-01-02T14:22:02.667Z,15.00
2023-01-02T14:24:34.579Z,14.92
2023-01-02T14:27:22.616Z,14.92
2023-01-02T14:29:54.421Z,14.94
2023-01-02T14:32:36.184Z,14.87
2023-01-02T14:35:08.301Z,15.09
2023-01-02T14:37:41.715Z,15.20
2023-01-02T14:40:18.837Z,15.18
2023-01-02T14:42:54.575Z,15.10
2023-01-02T14:45:23.426Z,15.00
2023-01-02T14:48:00.113Z,15.13
2023-01-02T14:50:33.336Z,14.96
2023-01-02T14:53:09.781Z,14.89
2023-01-02T14:55:42.274Z,14.72
2023-01-02T14:58:21.870Z,14.67
2023-01-02T15:00:51.341Z,14.59
2023-01-02T15:03:28.765Z,14.65
2023-01-02T15:06:03.362Z,14.53
2023-01-02T15:08:37.997Z,14.71
2023-01-02T15:11:17.548Z,14.75
2023-01-02T15:14:05.301Z,14.66
2023-01-02T15:16:42.252Z,14.75
2023-01-02T15:19:18.903Z,14.79
2023-01-02T15:21:47.006Z,14.87
2023-01-02T15:24:21.611Z,14.83
2023-01-02T15:26:50.063Z,14.77
2023-01-02T15:29:25.428Z,14.80
2023-01-02T15:31:55.807Z,14.75
2023-01-02T15:34:29.287Z,14.82
2023-01-02T15:37:01.777Z,14.69
2023-01-02T15:39:34.204Z,14.64
2023-01-02T15:42:11.859Z,14.65
2023-01-02T15:44:41.733Z,14.76
2023-01-02T15:47:11.475Z,14.92
2023-01-02T15:49:42.789Z,15.02
2023-01-02T15:52:22.100Z,14.93
2023-01-02T15:54:51.533Z,14.91
2023-01-02T15:57:25.635Z,14.99
2023-01-02T15:59:55.777Z,15.04
2023-01-02T16:02:39.819Z,15.10
2023-01-02T16:05:11.197Z,15.06
2023-01-02T16:07:39.351Z,15.06
2023-01-02T16:10:15.856Z,15.02
2023-01-02T16:12:43.742Z,14.95
2023-01-02T16:15:22.123Z,15.02
2023-01-02T16:17:52.848Z,15.06
2023-01-02T16:20:23.084Z,14.96
2023-01-02T16:22:55.843Z,15.04
2023-01-02T16:25:27.375Z,14.98
2023-01-02T16:28:02.028Z,15.04
2023-01-02T16:30:37.573Z,15.05
2023-01-02T16:33:20.846Z,15.09
2023-01-02T16:35:59.862Z,15.07
2023-01-02T16:38:28.576Z,15.11
2023-01-02T16:41:01.222Z,15.10
2023-01-02T16:43:34.413Z,15.02
2023-01-02T16:46:13.588Z,14.80
2023-01-02T16:48:43.507Z,14.88
2023-01-02T16:51:14.118Z,14.89
2023-01-02T16:53:43.485Z,15.01
2023-01-02T16:56:11.907Z,15.01
2023-01-02T16:58:39.520Z,14.99
2023-01-02T17:01:12.868Z,14.99
2023-01-02T17:03:41.596Z,15.07
2023-01-02T17:06:12.491Z,15.04
2023-01-02T17:08:40.772Z,14.92
2023-01-02T17:11:08.484Z,14.93
2023-01-02T17:13:36.222Z,14.81
2023-01-02T17:16:04.449Z,14.82
2023-01-02T17:18:34.501Z,14.95
2023-01-02T17:21:02.417Z,14.73
2023-01-02T17:23:30.438Z,14.71
2023-01-02T17:25:58.290Z,14.65
2023-01-02T17:28:26.153Z,14.54
2023-01-02T17:30:53.881Z,14.48
2023-01-02T17:33:22.628Z,14.56
2023-01-02T17:35:51.738Z,14.41
2023-01-02T17:38:20.057Z,14.57
2023-01-02T17:40:47.911Z,14.47
2023-01-02T17:43:15.979Z,14.47
2023-01-02T17:45:44.845Z,14.15
2023-01-02T17:48:15.260Z,14.32
2023-01-02T17:50:51.996Z,14.19
2023-01-02T17:53:19.563Z,14.20
2023-01-02T17:55:51.036Z,14.21
2023-01-02T17:58:41.101Z,14.25
2023-01-02T18:01:14.887Z,14.24
2023-01-02T18:03:43.878Z,14.03
2023-01-02T18:06:17.567Z,14.11
2023-01-02T18:08:45.884Z,14.16
2023-01-02T18:11:16.201Z,14.05
2023-01-02T18:13:49.633Z,13.98
2023-01-02T18:16:19.591Z,13.97
2023-01-02T18:18:48.384Z,13.90
2023-01-02T18:21:21.572Z,13.96
2023-01-02T18:23:55.610Z,13.95
2023-01-02T18:26:25.961Z,13.99
2023-01-02T18:28:55.642Z,13.99
2023-01-02T18:31:26.667Z,14.15
2023-01-02T18:34:00.717Z,13.95
2023-01-02T18:36:32.361Z,13.85
2023-01-02T18:39:11.140Z,13.98
2023-01-02T18:41:38.739Z,13.89
2023-01-02T18:44:18.230Z,13.99
2023-01-02T18:47:03.319Z,13.98
2023-01-02T18:49:41.773Z,14.11
2023-01-02T18:52:24.451Z,14.00
2023-01-02T18:54:57.922Z,14.15
2023-01-02T18:57:31.803Z,14.09
2023-01-02T19:00:18.283Z,14.07
2023-01-02T19:02:56.178Z,14.15
2023-01-02T19:05:28.355Z,14.11
2023-01-02T19:08:21.869Z,14.11
2023-01-02T19:10:54.284Z,14.09
2023-01-02T19:13:24.505Z,14.00
2023-01-02T19:15:57.497Z,14.07
2023-01-02T19:18:34.388Z,14.04
2023-01-02T19:21:18.089Z,14.14
2023-01-02T19:23:57.023Z,14.13
2023-01-02T19:26:31.800Z,14.19
2023-01-02T19:29:04.029Z,14.12
2023-01-02T19:31:41.954Z,14.03
2023-01-02T19:34:25.279Z,14.04
2023-01-02T19:37:21.799Z,13.88
2023-01-02T19:39:53.215Z,13.86
2023-01-02T19:42:23.714Z,13.76
2023-01-02T19:44:53.597Z,13.59
2023-01-02T19:47:23.688Z,13.56
2023-01-02T19:49:51.688Z,13.54
2023-01-02T19:52:20.693Z,13.60
2023-01-02T19:54:49.197Z,13.48
2023-01-02T19:57:19.020Z,13.55
2023-01-02T19:59:48.192Z,13.42
2023-01-02T20:02:19.193Z,13.47
2023-01-02T20:04:48.211Z,13.40
2023-01-02T20:07:16.807Z,13.40
2023-01-02T20:09:45.267Z,13.32
2023-01-02T20:12:13.063Z,13.39
2023-01-02T20:14:42.513Z,13.26
2023-01-02T20:17:11.161Z,13.29
2023-01-02T20:19:39.774Z,13.32
2023-01-02T20:22:07.954Z,13.32
2023-01-02T20:24:35.699Z,13.21
2023-01-02T20:27:04.413Z,13.26
2023-01-02T20:29:32.251Z,13.29
2023-01-02T20:32:01.357Z,13.34
2023-01-02T20:34:28.973Z,13.24
2023-01-02T20:36:56.596Z,13.28
2023-01-02T20:39:24.154Z,13.31
2023-01-02T20:41:51.754Z,13.28
2023-01-02T20:44:19.651Z,13.37
2023-01-02T20:46:47.420Z,13.24
2023-01-02T20:49:17.260Z,13.30
2023-01-02T20:51:44.866Z,13.35
2023-01-02T20:54:12.484Z,13.28
2023-01-02T20:56:40.212Z,13.37
2023-01-02T20:59:08.431Z,13.42
2023-01-02T21:01:36.116Z,13.35
2023-01-02T21:04:04.084Z,13.38
2023-01-02T21:06:32.988Z,13.35
2023-01-02T21:09:02.875Z,13.35
2023-01-02T21:11:30.775Z,13.36
2023-01-02T21:13:58.474Z,13.31
2023-01-02T21:16:26.406Z,13.33
2023-01-02T21:18:54.215Z,13.39
2023-01-02T21:21:22.377Z,13.16
2023-01-02T21:23:51.536Z,13.20
2023-01-02T21:26:20.194Z,13.26
2023-01-02T21:28:48.515Z,13.21
2023-01-02T21:31:18.151Z,13.28
2023-01-02T21:33:46.067Z,13.23
2023-01-02T21:36:13.956Z,13.15
2023-01-02T21:38:42.502Z,13.28
2023-01-02T21:41:11.987Z,13.14
2023-01-02T21:43:39.849Z,13.20
2023-01-02T21:46:07.675Z,13.11
2023-01-02T21:48:35.290Z,13.09
2023-01-02T21:51:02.880Z,13.13
2023-01-02T21:53:30.631Z,13.08
2023-01-02T21:55:58.402Z,12.94
2023-01-02T21:58:29.740Z,12.78
2023-01-02T22:00:57.645Z,12.78
2023-01-02T22:03:25.251Z,12.68
2023-01-02T22:05:52.899Z,12.60
2023-01-02T22:08:20.676Z,12.50
2023-01-02T22:10:48.296Z,12.29
2023-01-02T22:13:16.586Z,12.41
2023-01-02T22:15:45.687Z,12.31
2023-01-02T22:18:13.400Z,12.23
2023-01-02T22:20:40.950Z,12.17
2023-01-02T22:23:08.546Z,12.07
2023-01-02T22:25:36.217Z,12.03
2023-01-02T22:28:04.350Z,12.16
2023-01-02T22:30:34.954Z,12.34
2023-01-02T22:33:04.491Z,12.41
2023-01-02T22:35:33.806Z,12.44
2023-01-02T22:38:01.581Z,12.13
2023-01-02T22:40:29.301Z,12.22
2023-01-02T22:43:06.072Z,12.17
2023-01-02T22:45:39.767Z,12.37
2023-01-02T22:48:19.323Z,12.29
2023-01-02T22:50:49.513Z,12.34
2023-01-02T22:53:20.845Z,12.25
2023-01-02T22:55:49.204Z,12.05
2023-01-02T22:58:17.325Z,11.98
2023-01-02T23:00:47.703Z,12.08
2023-01-02T23:03:17.098Z,12.15
2023-01-02T23:05:44.664Z,12.04
2023-01-02T23:08:12.387Z,11.82
2023-01-02T23:10:40.018Z,11.87
2023-01-02T23:13:08.781Z,12.04
2023-01-02T23:15:36.576Z,12.00
2023-01-02T23:18:05.860Z,12.04
2023-01-02T23:20:34.753Z,12.03
2023-01-02T23:23:02.444Z,12.06
2023-01-02T23:25:30.027Z,11.84
2023-01-02T23:27:57.855Z,11.85
2023-01-02T23:30:25.614Z,11.84
2023-01-02T23:32:53.159Z,11.59
2023-01-02T23:35:20.830Z,11.58
2023-01-02T23:37:52.105Z,11.68
2023-01-02T23:40:19.653Z,11.82
2023-01-02T23:42:47.214Z,11.90
2023-01-02T23:45:14.814Z,11.81
2023-01-02T23:47:42.603Z,11.69
2023-01-02T23:50:10.277Z,11.67
2023-01-02T23:52:37.787Z,11.66
2023-01-02T23:55:07.299Z,11.60
2023-01-02T23:57:34.858Z,11.60
